Time;durP1;ratioP1;P1;durP2;ratioP2;P2;SDS_P1;SDS_P2;PMS_P1;PMS_P2;Temp;Humidity;BMP_temperature;BMP_pressure;BME280_temperature;BME280_humidity;BME280_pressure;Samples;Min_cycle;Max_cycle;Signal;HPM_P1;HPM_P2
2023/09/10 00:02:02;;;;;;;44.92;40.53;;;22.40;99.90;;;;;;5102010;28;20193;-68
2023/09/10 00:04:27;;;;;;;44.30;39.83;;;22.40;99.90;;;;;;5105274;28;20015;-68
2023/09/10 00:06:53;;;;;;;45.55;40.97;;;22.40;99.90;;;;;;5102949;28;20047;-67
2023/09/10 00:09:19;;;;;;;44.22;39.95;;;22.40;99.90;;;;;;5110584;28;20146;-70
2023/09/10 00:11:45;;;;;;;44.67;40.40;;;22.40;99.90;;;;;;5105747;28;20012;-67
2023/09/10 00:14:10;;;;;;;44.95;40.28;;;22.40;99.90;;;;;;5106572;28;20028;-67
2023/09/10 00:16:36;;;;;;;44.53;40.05;;;22.40;99.90;;;;;;5113045;28;20035;-68
2023/09/10 00:19:02;;;;;;;44.50;39.80;;;22.40;99.90;;;;;;5111309;28;20059;-66
2023/09/10 00:21:27;;;;;;;44.47;39.80;;;22.30;99.90;;;;;;5112272;28;20389;-67
2023/09/10 00:23:53;;;;;;;42.90;38.53;;;22.30;99.90;;;;;;5103232;28;20027;-68
2023/09/10 00:26:18;;;;;;;44.78;40.05;;;22.30;99.90;;;;;;5104434;28;20031;-67
2023/09/10 00:28:44;;;;;;;44.70;40.10;;;22.30;99.90;;;;;;5097451;28;20020;-67
2023/09/10 00:31:10;;;;;;;46.60;41.95;;;22.30;99.90;;;;;;5108543;28;20074;-68
2023/09/10 00:33:35;;;;;;;45.03;40.60;;;22.30;99.90;;;;;;5098436;28;20106;-69
2023/09/10 00:36:01;;;;;;;46.35;41.55;;;22.20;99.90;;;;;;5102918;28;20388;-67
2023/09/10 00:38:26;;;;;;;47.28;42.65;;;22.20;99.90;;;;;;5105092;28;20035;-67
2023/09/10 00:40:52;;;;;;;49.05;44.15;;;22.20;99.90;;;;;;5112881;28;20020;-68
2023/09/10 00:43:17;;;;;;;47.80;43.00;;;22.20;99.90;;;;;;5114981;28;20031;-68
2023/09/10 00:45:43;;;;;;;48.90;44.13;;;22.20;99.90;;;;;;5109152;28;20072;-69
2023/09/10 00:48:09;;;;;;;47.95;42.83;;;22.10;99.90;;;;;;5109821;28;20115;-68
2023/09/10 00:50:34;;;;;;;47.83;42.83;;;22.10;99.90;;;;;;5116360;28;20036;-68
2023/09/10 00:53:00;;;;;;;46.92;42.22;;;22.10;99.90;;;;;;5098941;28;20392;-67
2023/09/10 00:55:29;;;;;;;47.45;42.65;;;22.10;99.90;;;;;;5103074;28;20020;-69
2023/09/10 00:57:55;;;;;;;50.40;45.35;;;22.10;99.90;;;;;;5107569;28;20422;-68
2023/09/10 01:00:21;;;;;;;50.33;45.20;;;22.10;99.90;;;;;;5108641;28;20040;-69
2023/09/10 01:02:49;;;;;;;51.85;46.45;;;22.10;99.90;;;;;;5114916;28;20059;-68
2023/09/10 01:05:16;;;;;;;51.67;46.20;;;22.00;99.90;;;;;;5112088;28;20110;-68
2023/09/10 01:07:41;;;;;;;54.42;48.80;;;22.00;99.90;;;;;;5101856;28;20051;-68
2023/09/10 01:10:08;;;;;;;55.30;49.72;;;22.00;99.90;;;;;;5104501;28;20087;-68
2023/09/10 01:12:33;;;;;;;54.33;48.92;;;22.00;99.90;;;;;;5109521;28;20114;-67
2023/09/10 01:15:26;;;;;;;55.00;49.40;;;22.00;99.90;;;;;;5114752;28;20115;-67
2023/09/10 01:18:13;;;;;;;53.63;48.25;;;21.90;99.90;;;;;;5103446;28;20103;-67
2023/09/10 01:21:07;;;;;;;54.58;49.10;;;21.90;99.90;;;;;;5102145;28;20483;-68
2023/09/10 01:24:09;;;;;;;54.95;49.40;;;21.90;99.90;;;;;;5101879;28;20031;-68
2023/09/10 01:26:39;;;;;;;55.42;49.92;;;21.80;99.90;;;;;;5101930;28;20085;-67
2023/09/10 01:29:10;;;;;;;53.95;48.55;;;21.80;99.90;;;;;;5112569;28;20048;-67
2023/09/10 01:31:38;;;;;;;54.35;48.92;;;21.80;99.90;;;;;;5109272;28;20036;-67
2023/09/10 01:34:06;;;;;;;54.95;49.38;;;21.80;99.90;;;;;;5115234;28;20115;-69
2023/09/10 01:36:37;;;;;;;53.17;47.97;;;21.80;99.90;;;;;;5114159;28;20028;-67
2023/09/10 01:39:18;;;;;;;50.80;45.60;;;21.70;99.90;;;;;;5115002;28;20430;-66
2023/09/10 01:41:45;;;;;;;53.28;47.97;;;21.70;99.90;;;;;;5108734;28;20099;-67
2023/09/10 01:44:11;;;;;;;52.90;47.80;;;21.70;99.90;;;;;;5105560;28;20038;-68
2023/09/10 01:46:39;;;;;;;53.72;48.53;;;21.70;99.90;;;;;;5110093;28;20023;-69
2023/09/10 01:49:05;;;;;;;51.20;46.10;;;21.70;99.90;;;;;;5113299;28;20434;-67
2023/09/10 01:51:31;;;;;;;52.17;46.72;;;21.70;99.90;;;;;;5109472;28;20031;-67
2023/09/10 01:53:57;;;;;;;51.13;46.13;;;21.70;99.90;;;;;;5103586;28;20028;-68
2023/09/10 01:56:22;;;;;;;52.00;46.80;;;21.70;99.90;;;;;;5102481;28;20103;-67
2023/09/10 01:58:49;;;;;;;51.72;46.50;;;21.60;99.90;;;;;;5114536;28;20055;-68
2023/09/10 02:01:14;;;;;;;51.30;46.20;;;21.70;99.90;;;;;;5114500;28;20043;-69
2023/09/10 02:03:40;;;;;;;50.08;45.08;;;21.70;99.90;;;;;;5114894;28;20015;-68
2023/09/10 02:06:05;;;;;;;50.67;45.63;;;21.60;99.90;;;;;;5114236;28;20460;-67
2023/09/10 02:08:31;;;;;;;50.10;45.10;;;21.60;99.90;;;;;;5114172;28;20574;-67
2023/09/10 02:10:56;;;;;;;50.90;45.58;;;21.60;99.90;;;;;;5104904;28;20040;-69
2023/09/10 02:13:22;;;;;;;49.83;44.83;;;21.60;99.90;;;;;;5109986;28;20420;-69
2023/09/10 02:15:48;;;;;;;50.00;44.50;;;21.60;99.90;;;;;;5103340;28;20031;-66
2023/09/10 02:18:13;;;;;;;48.97;44.38;;;21.70;99.90;;;;;;5103883;28;20024;-68
2023/09/10 02:20:39;;;;;;;48.35;43.53;;;21.60;99.90;;;;;;5108744;28;20103;-67
2023/09/10 02:23:04;;;;;;;48.28;43.47;;;21.60;99.90;;;;;;5113889;28;20132;-68
2023/09/10 02:25:32;;;;;;;47.25;42.55;;;21.60;99.90;;;;;;5113287;28;20035;-67
2023/09/10 02:27:59;;;;;;;48.35;43.45;;;21.60;99.90;;;;;;5114558;28;20030;-67
2023/09/10 02:30:25;;;;;;;47.33;42.30;;;21.60;99.90;;;;;;5112861;28;20036;-68
2023/09/10 02:32:50;;;;;;;47.03;42.22;;;21.60;99.90;;;;;;5114141;28;20031;-68
2023/09/10 02:35:16;;;;;;;45.85;41.30;;;21.60;99.90;;;;;;5096942;28;20029;-67
2023/09/10 02:37:42;;;;;;;45.03;40.17;;;21.60;99.90;;;;;;5113137;28;20032;-68
2023/09/10 02:40:09;;;;;;;44.80;40.38;;;21.60;99.90;;;;;;5113748;28;20034;-68
2023/09/10 02:42:34;;;;;;;45.63;40.92;;;21.60;99.90;;;;;;5114284;28;20035;-69
2023/09/10 02:45:02;;;;;;;45.80;41.00;;;21.60;99.90;;;;;;5096882;28;20384;-68
2023/09/10 02:47:27;;;;;;;44.50;40.00;;;21.60;99.90;;;;;;5107961;28;20031;-68
2023/09/10 02:49:54;;;;;;;43.88;39.35;;;21.60;99.90;;;;;;5112323;28;20054;-66
2023/09/10 02:52:24;;;;;;;45.33;40.63;;;21.60;99.90;;;;;;5114490;28;20030;-68
2023/09/10 02:54:50;;;;;;;45.33;40.65;;;21.60;99.90;;;;;;5114806;28;20093;-67
2023/09/10 02:57:16;;;;;;;43.92;39.40;;;21.60;99.90;;;;;;5113707;28;20091;-67
2023/09/10 02:59:42;;;;;;;43.42;39.17;;;21.60;99.90;;;;;;5114131;28;20035;-67
2023/09/10 03:02:07;;;;;;;43.00;38.67;;;21.60;99.90;;;;;;5114222;28;20035;-67
2023/09/10 03:04:33;;;;;;;43.65;39.35;;;21.60;99.90;;;;;;5111371;28;20062;-66
2023/09/10 03:07:01;;;;;;;43.95;39.50;;;21.50;99.90;;;;;;5109382;28;20112;-67
2023/09/10 03:09:26;;;;;;;44.90;40.25;;;21.50;99.90;;;;;;5112417;28;20489;-67
2023/09/10 03:11:52;;;;;;;45.92;41.13;;;21.50;99.90;;;;;;5111628;27;20110;-68
2023/09/10 03:14:18;;;;;;;43.58;39.13;;;21.50;99.90;;;;;;5101515;28;20023;-69
2023/09/10 03:16:43;;;;;;;43.13;38.95;;;21.50;99.90;;;;;;5111554;28;20528;-67
2023/09/10 03:19:09;;;;;;;42.85;38.65;;;21.50;99.90;;;;;;5107743;28;20040;-67
2023/09/10 03:21:36;;;;;;;44.35;40.05;;;21.50;99.90;;;;;;5109133;28;20050;-68
2023/09/10 03:24:01;;;;;;;44.40;40.10;;;21.40;99.90;;;;;;5099171;28;20023;-67
2023/09/10 03:26:27;;;;;;;44.33;39.83;;;21.40;99.90;;;;;;5109818;28;20116;-67
2023/09/10 03:28:52;;;;;;;44.47;40.10;;;21.40;99.90;;;;;;5111889;28;20478;-67
2023/09/10 03:31:18;;;;;;;45.25;40.75;;;21.40;99.90;;;;;;5107143;28;20039;-67
2023/09/10 03:33:43;;;;;;;44.58;40.00;;;21.40;99.90;;;;;;5112864;28;20031;-68
2023/09/10 03:36:09;;;;;;;43.95;39.47;;;21.30;99.90;;;;;;5108651;28;20028;-66
2023/09/10 03:38:35;;;;;;;42.38;38.20;;;21.30;99.90;;;;;;5111054;28;20409;-68
2023/09/10 03:41:01;;;;;;;45.25;40.67;;;21.30;99.90;;;;;;5098494;28;20536;-67
2023/09/10 03:43:26;;;;;;;43.15;39.03;;;21.30;99.90;;;;;;5102402;28;20080;-69
2023/09/10 03:45:52;;;;;;;43.90;39.42;;;21.30;99.90;;;;;;5111485;28;20032;-66
2023/09/10 03:48:17;;;;;;;40.92;36.47;;;21.20;99.90;;;;;;5107984;28;20032;-67
2023/09/10 03:50:43;;;;;;;43.60;39.25;;;21.20;99.90;;;;;;5103418;28;20403;-66
2023/09/10 03:53:08;;;;;;;41.40;37.08;;;21.20;99.90;;;;;;5112774;28;20031;-68
2023/09/10 03:55:34;;;;;;;40.67;36.60;;;21.20;99.90;;;;;;5102085;28;20031;-68
2023/09/10 03:57:59;;;;;;;41.75;37.60;;;21.20;99.90;;;;;;5106510;28;20489;-68
2023/09/10 04:00:26;;;;;;;40.13;35.97;;;21.20;99.90;;;;;;5097207;28;20038;-67
2023/09/10 04:02:52;;;;;;;40.55;36.22;;;21.20;99.90;;;;;;5097061;28;20031;-66
2023/09/10 04:05:18;;;;;;;41.25;36.97;;;21.20;99.90;;;;;;5105398;28;20373;-67
2023/09/10 04:07:44;;;;;;;40.00;35.90;;;21.20;99.90;;;;;;5108834;28;20034;-66
2023/09/10 04:10:09;;;;;;;39.53;35.40;;;21.20;99.90;;;;;;5103493;28;20048;-66
2023/09/10 04:12:36;;;;;;;39.17;35.20;;;21.10;99.90;;;;;;5103765;28;20020;-68
2023/09/10 04:15:02;;;;;;;37.45;33.67;;;21.10;99.90;;;;;;5107040;28;20032;-68
2023/09/10 04:17:29;;;;;;;40.17;35.88;;;21.10;99.90;;;;;;5108622;28;20023;-67
2023/09/10 04:19:58;;;;;;;39.28;35.22;;;21.10;99.90;;;;;;5117294;28;20383;-66
2023/09/10 04:22:24;;;;;;;39.08;35.17;;;21.10;99.90;;;;;;5100335;28;20487;-67
2023/09/10 04:24:50;;;;;;;38.70;34.45;;;21.10;99.90;;;;;;5113442;28;20020;-68
2023/09/10 04:27:15;;;;;;;39.63;35.45;;;21.10;99.90;;;;;;5117381;28;20023;-67
2023/09/10 04:29:41;;;;;;;39.55;35.45;;;21.10;99.90;;;;;;5106315;28;20494;-67
2023/09/10 04:32:07;;;;;;;38.63;34.70;;;21.10;99.90;;;;;;5111375;28;20024;-68
2023/09/10 04:34:32;;;;;;;39.33;35.35;;;21.10;99.90;;;;;;5100625;28;20106;-68
2023/09/10 04:36:58;;;;;;;38.88;34.97;;;21.10;99.90;;;;;;5110946;28;20039;-68
2023/09/10 04:39:23;;;;;;;39.60;35.50;;;21.10;99.90;;;;;;5107799;28;20028;-68
2023/09/10 04:41:49;;;;;;;40.63;36.55;;;21.10;99.90;;;;;;5108106;28;20364;-67
2023/09/10 04:44:15;;;;;;;39.90;35.83;;;21.00;99.90;;;;;;5101427;28;20043;-67
2023/09/10 04:46:41;;;;;;;39.00;35.05;;;21.00;99.90;;;;;;5113633;28;20104;-68
2023/09/10 04:49:07;;;;;;;40.58;36.58;;;21.00;99.90;;;;;;5102612;28;20513;-68
2023/09/10 04:51:32;;;;;;;40.05;35.97;;;21.00;99.90;;;;;;5107253;28;20525;-67
2023/09/10 04:53:58;;;;;;;40.53;36.50;;;21.00;99.90;;;;;;5102487;28;20042;-67
2023/09/10 04:56:23;;;;;;;40.40;36.25;;;21.00;99.90;;;;;;5113224;28;20027;-67
2023/09/10 04:58:49;;;;;;;40.25;36.15;;;21.00;99.90;;;;;;5099630;28;20413;-67
2023/09/10 05:01:15;;;;;;;39.45;35.35;;;21.00;99.90;;;;;;5115279;28;20034;-67
2023/09/10 05:03:43;;;;;;;41.38;37.03;;;21.00;99.90;;;;;;5116782;28;20484;-67
2023/09/10 05:06:09;;;;;;;41.45;37.05;;;21.00;99.90;;;;;;5101950;28;20024;-69
2023/09/10 05:08:35;;;;;;;42.63;38.05;;;20.90;99.90;;;;;;5112786;28;20059;-67
2023/09/10 05:11:02;;;;;;;39.97;35.83;;;20.90;99.90;;;;;;5101102;28;20516;-68
2023/09/10 05:13:28;;;;;;;39.97;36.08;;;20.90;99.90;;;;;;5111113;28;20106;-68
2023/09/10 05:15:54;;;;;;;39.92;35.92;;;20.90;99.90;;;;;;5105623;28;20105;-68
2023/09/10 05:18:21;;;;;;;39.97;35.92;;;21.00;99.90;;;;;;5116465;28;20024;-67
2023/09/10 05:20:52;;;;;;;40.92;36.75;;;20.90;99.90;;;;;;5099476;28;20035;-68
2023/09/10 05:23:19;;;;;;;41.17;36.97;;;20.90;99.90;;;;;;5108682;28;20039;-68
2023/09/10 05:25:44;;;;;;;39.70;35.67;;;21.00;99.90;;;;;;5107062;28;20252;-67
2023/09/10 05:28:10;;;;;;;40.13;35.97;;;21.00;99.90;;;;;;5099677;28;20047;-68
2023/09/10 05:30:37;;;;;;;40.03;35.97;;;21.00;99.90;;;;;;5113510;28;20491;-68
2023/09/10 05:33:03;;;;;;;38.13;34.33;;;21.00;99.90;;;;;;5114861;28;20030;-67
2023/09/10 05:35:29;;;;;;;38.28;34.38;;;21.00;99.90;;;;;;5116217;28;20024;-67
2023/09/10 05:37:54;;;;;;;38.03;34.13;;;21.10;99.90;;;;;;5109510;28;20031;-69
2023/09/10 05:40:20;;;;;;;36.78;33.08;;;21.10;99.90;;;;;;5114439;28;20128;-68
2023/09/10 05:42:45;;;;;;;37.03;33.13;;;21.10;99.90;;;;;;5098819;28;20092;-68
2023/09/10 05:45:11;;;;;;;35.88;32.17;;;21.20;99.90;;;;;;5108906;28;20046;-69
2023/09/10 05:47:37;;;;;;;35.53;31.83;;;21.20;99.90;;;;;;5109672;28;20027;-65
2023/09/10 05:50:04;;;;;;;36.05;32.15;;;21.30;99.90;;;;;;5107687;28;20089;-67
2023/09/10 05:52:29;;;;;;;32.00;28.60;;;21.30;99.90;;;;;;5111731;28;20110;-68
2023/09/10 05:54:55;;;;;;;33.30;29.70;;;21.40;99.90;;;;;;5112757;28;20114;-67
2023/09/10 05:57:20;;;;;;;34.17;30.73;;;21.40;99.90;;;;;;5107585;28;20070;-67
2023/09/10 05:59:46;;;;;;;31.98;28.77;;;21.50;99.90;;;;;;5114068;28;20028;-67
2023/09/10 06:02:11;;;;;;;31.15;27.85;;;21.50;99.90;;;;;;5113962;27;20035;-68
2023/09/10 06:04:37;;;;;;;29.83;26.65;;;21.60;99.90;;;;;;5115488;28;20479;-67
2023/09/10 06:07:05;;;;;;;33.97;28.33;;;21.70;99.90;;;;;;5114995;28;20032;-67
2023/09/10 06:09:31;;;;;;;29.95;26.85;;;21.80;99.90;;;;;;5115397;28;20055;-68
2023/09/10 06:11:59;;;;;;;29.95;26.75;;;21.90;99.90;;;;;;5114752;28;20051;-68
2023/09/10 06:14:24;;;;;;;33.00;26.48;;;21.90;99.90;;;;;;5113443;28;20023;-67
2023/09/10 06:16:50;;;;;;;27.85;24.48;;;21.90;99.90;;;;;;5097947;28;20024;-67
2023/09/10 06:19:16;;;;;;;28.40;24.25;;;22.00;99.90;;;;;;5115013;28;20456;-68
2023/09/10 06:21:42;;;;;;;28.85;24.67;;;22.10;99.90;;;;;;5115033;28;20027;-68
2023/09/10 06:24:07;;;;;;;28.40;25.33;;;22.20;99.90;;;;;;5115027;28;20482;-67
2023/09/10 06:26:33;;;;;;;31.10;24.17;;;22.30;99.90;;;;;;5115176;28;20024;-67
2023/09/10 06:29:00;;;;;;;27.58;23.80;;;22.30;99.90;;;;;;5115307;28;20028;-67
2023/09/10 06:31:25;;;;;;;29.10;23.80;;;22.40;99.90;;;;;;5098869;28;20047;-67
2023/09/10 06:33:52;;;;;;;27.98;22.95;;;22.50;99.90;;;;;;5101370;28;20350;-69
2023/09/10 06:36:18;;;;;;;28.98;23.17;;;22.60;99.90;;;;;;5104845;28;20081;-68
2023/09/10 06:38:47;;;;;;;25.40;22.20;;;22.70;99.90;;;;;;5114067;28;20035;-66
2023/09/10 06:41:15;;;;;;;28.95;23.05;;;22.80;99.90;;;;;;5115198;28;20073;-68
2023/09/10 06:43:40;;;;;;;24.67;22.08;;;22.90;99.90;;;;;;5114696;28;20494;-68
2023/09/10 06:46:06;;;;;;;24.55;21.20;;;23.00;99.90;;;;;;5114938;28;20028;-66
2023/09/10 06:48:31;;;;;;;25.95;20.98;;;23.10;99.90;;;;;;5114214;28;20087;-67
2023/09/10 06:51:00;;;;;;;25.20;21.40;;;23.30;99.90;;;;;;5097076;28;20044;-67
2023/09/10 06:53:26;;;;;;;25.63;21.25;;;23.40;99.90;;;;;;5106360;28;20035;-69
2023/09/10 06:55:52;;;;;;;23.65;20.58;;;23.50;99.90;;;;;;5114363;27;20027;-67
2023/09/10 06:58:18;;;;;;;24.77;19.92;;;23.60;99.90;;;;;;5114261;28;20036;-68
2023/09/10 07:00:44;;;;;;;24.50;20.35;;;23.70;99.90;;;;;;5114447;28;20034;-68
2023/09/10 07:03:11;;;;;;;23.98;19.60;;;23.80;99.90;;;;;;5114643;28;20034;-69
2023/09/10 07:05:38;;;;;;;23.45;19.60;;;23.90;99.90;;;;;;5113281;28;20047;-67
2023/09/10 07:08:03;;;;;;;24.45;20.15;;;23.90;99.90;;;;;;5093773;28;20023;-67
2023/09/10 07:10:29;;;;;;;24.38;19.88;;;24.00;99.90;;;;;;5106460;28;20508;-68
2023/09/10 07:12:55;;;;;;;25.50;19.92;;;24.10;99.90;;;;;;5113870;28;20023;-68
2023/09/10 07:15:20;;;;;;;26.15;20.90;;;24.30;99.90;;;;;;5113142;28;20020;-68
2023/09/10 07:17:46;;;;;;;24.90;20.02;;;24.40;99.90;;;;;;5107991;28;20020;-67
2023/09/10 07:20:11;;;;;;;25.35;20.05;;;24.50;99.90;;;;;;5112725;28;20024;-69
2023/09/10 07:22:37;;;;;;;25.45;19.90;;;24.70;99.90;;;;;;5113840;28;20032;-67
2023/09/10 07:25:02;;;;;;;25.27;20.17;;;24.80;99.90;;;;;;5113780;28;20460;-68
2023/09/10 07:27:28;;;;;;;24.90;20.90;;;25.10;99.90;;;;;;5113504;28;20032;-69
2023/09/10 07:29:53;;;;;;;24.30;18.60;;;25.40;99.90;;;;;;5114077;28;20483;-67
2023/09/10 07:32:19;;;;;;;24.83;20.60;;;25.90;99.90;;;;;;5114014;28;20051;-66
2023/09/10 07:34:45;;;;;;;25.20;20.63;;;26.50;99.90;;;;;;5106907;28;20043;-68
2023/09/10 07:37:10;;;;;;;25.85;20.27;;;27.10;99.90;;;;;;5114008;28;20038;-67
2023/09/10 07:39:36;;;;;;;25.83;19.48;;;27.90;99.90;;;;;;5113724;28;20058;-67
2023/09/10 07:42:01;;;;;;;26.08;19.42;;;28.70;99.90;;;;;;5113550;28;20023;-68
2023/09/10 07:44:27;;;;;;;25.90;19.98;;;29.40;99.90;;;;;;5112985;28;20027;-67
2023/09/10 07:46:52;;;;;;;23.23;17.88;;;30.10;99.90;;;;;;5113606;28;20032;-67
2023/09/10 07:49:18;;;;;;;25.33;18.65;;;30.70;99.90;;;;;;5113615;28;20023;-69
2023/09/10 07:51:43;;;;;;;25.23;19.75;;;31.30;99.00;;;;;;5112820;28;20556;-68
2023/09/10 07:54:09;;;;;;;23.70;18.92;;;31.80;98.00;;;;;;5113415;28;20491;-68
2023/09/10 07:56:35;;;;;;;25.02;18.70;;;32.30;97.40;;;;;;5113823;28;20520;-69
2023/09/10 07:59:00;;;;;;;24.42;19.52;;;32.90;96.50;;;;;;5108227;28;20502;-67
2023/09/10 08:01:26;;;;;;;23.73;19.70;;;33.20;95.60;;;;;;5097173;28;20020;-67
2023/09/10 08:03:51;;;;;;;24.50;19.90;;;33.60;95.20;;;;;;5102415;28;20024;-67
2023/09/10 08:06:17;;;;;;;22.92;17.48;;;34.00;94.60;;;;;;5093733;28;20043;-67
2023/09/10 08:08:42;;;;;;;23.77;18.30;;;34.40;94.20;;;;;;5092854;28;20101;-68
2023/09/10 08:11:08;;;;;;;23.67;17.67;;;34.70;93.40;;;;;;5092220;28;20039;-67
2023/09/10 08:13:33;;;;;;;22.75;17.17;;;34.80;93.10;;;;;;5092907;28;20028;-67
2023/09/10 08:15:59;;;;;;;24.40;18.25;;;35.10;92.90;;;;;;5097328;28;20024;-68
2023/09/10 08:18:25;;;;;;;21.83;16.65;;;35.20;92.40;;;;;;5102827;28;20336;-68
2023/09/10 08:20:50;;;;;;;23.95;18.63;;;35.50;92.40;;;;;;5100130;28;20027;-69
2023/09/10 08:23:16;;;;;;;22.60;17.55;;;36.10;92.10;;;;;;5102788;28;20027;-67
2023/09/10 08:25:41;;;;;;;24.40;18.40;;;36.70;91.30;;;;;;5102776;28;20504;-67
2023/09/10 08:28:07;;;;;;;22.90;17.13;;;37.00;90.60;;;;;;5102936;28;20036;-67
2023/09/10 08:30:33;;;;;;;21.83;16.75;;;37.00;90.40;;;;;;5113344;28;20078;-68
2023/09/10 08:32:58;;;;;;;21.90;17.00;;;37.10;90.30;;;;;;5112757;28;20123;-68
2023/09/10 08:35:28;;;;;;;23.40;17.42;;;37.00;90.10;;;;;;5112919;28;20490;-67
2023/09/10 08:37:54;;;;;;;24.25;17.15;;;37.00;90.10;;;;;;5112724;28;20471;-69
2023/09/10 08:40:20;;;;;;;20.77;15.23;;;36.90;90.20;;;;;;5112192;28;20033;-67
2023/09/10 08:42:58;;;;;;;23.42;17.23;;;37.00;90.20;;;;;;5112646;28;20023;-68
2023/09/10 08:45:23;;;;;;;24.80;15.75;;;37.50;90.00;;;;;;5112564;28;20023;-67
2023/09/10 08:47:54;;;;;;;19.40;15.70;;;38.00;89.00;;;;;;5101815;28;20379;-68
2023/09/10 08:50:22;;;;;;;20.30;14.33;;;38.60;88.30;;;;;;5100016;28;20122;-69
2023/09/10 08:52:48;;;;;;;22.80;16.30;;;39.20;87.00;;;;;;5109300;28;20032;-68
2023/09/10 08:55:14;;;;;;;22.45;17.30;;;39.30;85.90;;;;;;5103457;28;20028;-67
2023/09/10 08:57:41;;;;;;;21.58;16.67;;;39.30;85.20;;;;;;5101876;28;20027;-68
2023/09/10 09:00:12;;;;;;;18.90;14.45;;;39.40;85.10;;;;;;5100656;28;20044;-68
2023/09/10 09:02:39;;;;;;;20.25;15.43;;;39.80;85.10;;;;;;5105967;28;20118;-69
2023/09/10 09:05:06;;;;;;;21.38;14.85;;;40.30;84.00;;;;;;5107023;28;20513;-69
2023/09/10 09:07:36;;;;;;;19.52;15.10;;;40.70;83.20;;;;;;5101230;28;20027;-68
2023/09/10 09:10:06;;;;;;;20.80;15.52;;;41.20;82.60;;;;;;5096069;28;20087;-67
2023/09/10 09:12:32;;;;;;;;;;;41.50;81.70;;;;;;5102242;28;20474;-67
2023/09/10 09:15:01;;;;;;;21.75;15.80;;;41.70;81.10;;;;;;5115965;28;20006;-66
2023/09/10 09:17:28;;;;;;;19.52;14.90;;;41.70;81.00;;;;;;5116329;28;20030;-67
2023/09/10 09:19:56;;;;;;;20.58;14.82;;;41.80;80.50;;;;;;5116222;28;20039;-68
2023/09/10 09:22:40;;;;;;;18.70;15.38;;;41.70;80.40;;;;;;5108293;27;20028;-69
2023/09/10 09:25:07;;;;;;;21.02;14.90;;;41.80;80.10;;;;;;5097423;28;20026;-68
2023/09/10 09:27:34;;;;;;;21.55;15.20;;;41.80;80.00;;;;;;5108039;28;20077;-69
2023/09/10 09:30:05;;;;;;;20.55;15.77;;;41.90;79.90;;;;;;5115950;28;20043;-68
2023/09/10 09:32:33;;;;;;;21.90;15.27;;;41.80;79.50;;;;;;5114730;28;20027;-68
2023/09/10 09:34:59;;;;;;;21.45;15.85;;;41.60;79.70;;;;;;5095760;28;20043;-67
2023/09/10 09:37:24;;;;;;;20.73;14.45;;;41.50;79.70;;;;;;5095359;28;20032;-67
2023/09/10 09:39:50;;;;;;;19.17;13.55;;;41.40;79.90;;;;;;5108533;28;20072;-68
2023/09/10 09:42:16;;;;;;;22.42;15.20;;;41.20;80.30;;;;;;5104833;28;20082;-68
2023/09/10 09:44:44;;;;;;;19.98;15.77;;;41.10;80.30;;;;;;5099344;28;20020;-68
2023/09/10 09:47:13;;;;;;;20.42;15.65;;;41.10;80.40;;;;;;5095152;28;20024;-67
2023/09/10 09:49:45;;;;;;;21.50;15.32;;;41.30;80.30;;;;;;5095130;28;20068;-67
2023/09/10 09:52:14;;;;;;;19.00;13.68;;;41.30;80.10;;;;;;5094618;28;20028;-67
2023/09/10 09:54:40;;;;;;;22.27;14.38;;;41.10;80.40;;;;;;5095218;28;20055;-68
2023/09/10 09:57:06;;;;;;;19.05;13.68;;;41.20;80.40;;;;;;5094473;28;20028;-68
2023/09/10 09:59:36;;;;;;;21.90;15.32;;;41.50;80.40;;;;;;5101907;28;20034;-69
2023/09/10 10:02:02;;;;;;;19.10;15.05;;;42.00;79.40;;;;;;5115483;28;20028;-67
2023/09/10 10:04:32;;;;;;;19.25;13.90;;;42.30;79.20;;;;;;5115308;28;20035;-67
2023/09/10 10:06:58;;;;;;;20.75;13.40;;;42.60;78.80;;;;;;5114778;28;20032;-67
2023/09/10 10:09:32;;;;;;;17.15;13.40;;;42.50;79.20;;;;;;5115144;28;20040;-67
2023/09/10 10:11:58;;;;;;;18.80;14.13;;;42.50;78.50;;;;;;5110923;28;20078;-66
2023/09/10 10:14:25;;;;;;;17.13;12.90;;;42.50;78.90;;;;;;5094351;28;20024;-67
2023/09/10 10:16:51;;;;;;;18.67;11.35;;;42.70;77.90;;;;;;5110023;28;20046;-67
2023/09/10 10:19:17;;;;;;;19.08;13.52;;;42.90;77.60;;;;;;5114508;28;20486;-69
2023/09/10 10:21:45;;;;;;;20.30;13.55;;;43.10;77.10;;;;;;5115072;28;20034;-68
2023/09/10 10:24:14;;;;;;;19.38;12.32;;;43.20;76.80;;;;;;5114745;28;20547;-68
2023/09/10 10:26:42;;;;;;;19.73;12.10;;;43.00;76.80;;;;;;5114155;28;20024;-67
2023/09/10 10:29:09;;;;;;;18.23;12.38;;;42.90;76.40;;;;;;5115089;28;20467;-67
2023/09/10 10:31:39;;;;;;;16.05;10.93;;;42.40;77.10;;;;;;5110203;28;20379;-69
2023/09/10 10:34:11;;;;;;;17.85;10.63;;;42.10;77.10;;;;;;5093424;28;20075;-68
2023/09/10 10:37:08;;;;;;;16.65;10.63;;;42.00;77.80;;;;;;5094409;28;20031;-68
2023/09/10 10:40:11;;;;;;;15.68;10.20;;;42.30;77.00;;;;;;5105785;28;20038;-69
2023/09/10 10:42:57;;;;;;;19.10;10.05;;;42.20;77.20;;;;;;5113521;28;20023;-69
2023/09/10 10:45:24;;;;;;;15.95;9.68;;;42.20;77.20;;;;;;5114115;28;20027;-68
2023/09/10 10:47:50;;;;;;;14.52;9.40;;;42.10;77.30;;;;;;5104800;28;20056;-67
2023/09/10 10:50:24;;;;;;;15.13;8.77;;;42.30;76.70;;;;;;5094351;28;20040;-68
2023/09/10 10:53:05;;;;;;;15.07;9.85;;;42.30;76.80;;;;;;5093854;28;20020;-67
2023/09/10 10:55:34;;;;;;;14.77;8.38;;;42.50;76.50;;;;;;5094039;28;20035;-68
2023/09/10 10:58:03;;;;;;;13.20;7.78;;;42.90;76.60;;;;;;5093961;28;20103;-69
2023/09/10 11:00:29;;;;;;;12.82;7.32;;;43.20;75.70;;;;;;5096815;28;20430;-68
2023/09/10 11:03:27;;;;;;;13.70;7.10;;;43.40;74.90;;;;;;5113218;28;20050;-69
2023/09/10 11:05:53;;;;;;;15.82;7.75;;;43.50;74.80;;;;;;5061326;28;20420;-67
2023/09/10 11:08:33;;;;;;;14.57;7.18;;;43.70;74.40;;;;;;5099734;28;20113;-68
2023/09/10 11:11:01;;;;;;;12.35;7.47;;;43.70;74.10;;;;;;5097407;28;20390;-68
2023/09/10 11:13:27;;;;;;;11.68;6.60;;;43.70;74.20;;;;;;5105244;28;20415;-67
2023/09/10 11:16:04;;;;;;;15.60;7.93;;;43.90;74.00;;;;;;5104643;28;20034;-69
2023/09/10 11:18:36;;;;;;;13.85;7.13;;;43.60;72.90;;;;;;5110504;28;20020;-67
2023/09/10 11:21:12;;;;;;;13.80;6.88;;;42.80;73.80;;;;;;5097669;28;20023;-68
2023/09/10 11:23:39;;;;;;;15.73;7.03;;;42.70;74.50;;;;;;5104117;28;20482;-67
2023/09/10 11:26:14;;;;;;;13.23;7.13;;;42.40;74.20;;;;;;5105625;28;20391;-68
2023/09/10 11:28:52;;;;;;;12.68;6.95;;;42.30;74.40;;;;;;5096782;28;20024;-67
2023/09/10 11:31:33;;;;;;;15.73;7.93;;;42.50;74.60;;;;;;5106151;28;20038;-69
2023/09/10 11:34:17;;;;;;;15.00;8.73;;;43.00;74.70;;;;;;5102057;28;20035;-67
2023/09/10 11:36:43;;;;;;;14.30;7.50;;;43.50;74.10;;;;;;5095275;28;20023;-67
2023/09/10 11:39:09;;;;;;;14.82;7.80;;;43.70;73.50;;;;;;5097872;28;20032;-68
2023/09/10 11:41:35;;;;;;;14.90;7.60;;;43.70;73.50;;;;;;5113228;28;20111;-67
2023/09/10 11:44:01;;;;;;;13.02;7.72;;;43.40;73.60;;;;;;5100653;28;20371;-69
2023/09/10 11:46:27;;;;;;;16.33;8.10;;;43.00;74.20;;;;;;5106590;28;20051;-68
2023/09/10 11:48:52;;;;;;;13.93;8.90;;;43.00;74.30;;;;;;5091357;28;20553;-67
2023/09/10 11:51:19;;;;;;;16.98;7.95;;;43.10;74.60;;;;;;5099115;28;20052;-69
2023/09/10 11:53:44;;;;;;;16.58;8.00;;;43.30;74.70;;;;;;5104418;28;20039;-70
2023/09/10 11:56:11;;;;;;;12.73;8.13;;;43.40;74.50;;;;;;5106860;28;20476;-69
2023/09/10 11:58:40;;;;;;;13.20;7.55;;;43.50;74.10;;;;;;5111772;28;20028;-69
2023/09/10 12:01:05;;;;;;;13.18;7.55;;;43.30;74.00;;;;;;5112268;28;20027;-68
2023/09/10 12:03:31;;;;;;;13.20;7.28;;;43.20;74.10;;;;;;5100798;28;20440;-68
2023/09/10 12:05:58;;;;;;;13.93;7.47;;;43.40;74.10;;;;;;5113088;28;20032;-68
2023/09/10 12:08:23;;;;;;;15.25;6.60;;;43.70;73.70;;;;;;5098589;28;20442;-68
2023/09/10 12:10:54;;;;;;;13.77;7.40;;;44.00;73.40;;;;;;5098787;28;20040;-68
2023/09/10 12:13:20;;;;;;;;;;;44.00;71.90;;;;;;5099235;28;20020;-68
2023/09/10 12:15:45;;;;;;;13.23;7.40;;;43.90;72.20;;;;;;5112156;28;19915;-70
2023/09/10 12:18:11;;;;;;;12.57;6.70;;;43.70;71.70;;;;;;5109631;28;20024;-68
2023/09/10 12:20:37;;;;;;;14.77;7.32;;;43.70;72.20;;;;;;5112982;28;20028;-68
2023/09/10 12:23:04;;;;;;;13.48;7.15;;;43.20;72.70;;;;;;5096546;28;20027;-68
2023/09/10 12:25:30;;;;;;;16.42;7.78;;;42.90;74.00;;;;;;5105843;28;20028;-68
2023/09/10 12:27:57;;;;;;;13.55;7.20;;;42.30;74.50;;;;;;5103825;28;20104;-68
2023/09/10 12:30:23;;;;;;;13.80;7.20;;;42.10;74.00;;;;;;5098513;28;20117;-68